createdAt,value
2023-02-08T08:34:46.187Z,37.37
2023-02-08T08:39:40.053Z,28.37
2023-02-08T08:44:33.831Z,27.80
2023-02-08T08:49:28.153Z,25.60
2023-02-08T08:54:23.765Z,24.97
2023-02-08T08:59:17.429Z,23.33
2023-02-08T09:04:11.493Z,23.77
2023-02-08T09:09:05.971Z,27.80
2023-02-08T09:14:03.883Z,26.03
2023-02-08T09:18:57.847Z,25.17
2023-02-08T09:23:51.493Z,32.17
2023-02-08T09:28:45.371Z,35.37
2023-02-08T09:33:40.699Z,23.97
2023-02-08T09:38:34.846Z,26.57
2023-02-08T09:43:37.180Z,30.00
2023-02-08T09:48:35.276Z,24.33
2023-02-08T09:53:36.782Z,29.63
2023-02-08T09:58:36.097Z,28.40
2023-02-08T10:03:36.258Z,29.90
2023-02-08T10:08:35.511Z,26.33
2023-02-08T10:13:42.899Z,29.43
2023-02-08T10:18:46.720Z,28.40
2023-02-08T10:24:06.941Z,30.13
2023-02-08T10:29:33.669Z,29.97
2023-02-08T10:34:37.241Z,28.17
2023-02-08T10:39:35.791Z,30.03
2023-02-08T10:44:36.135Z,27.13
2023-02-08T10:49:40.505Z,27.63
2023-02-08T10:54:36.399Z,27.80
2023-02-08T10:59:34.816Z,26.90
2023-02-08T11:04:29.098Z,26.63
2023-02-08T11:09:25.946Z,27.97
2023-02-08T11:14:27.122Z,44.80
2023-02-08T11:19:35.562Z,27.53
2023-02-08T11:24:36.105Z,31.17
2023-02-08T11:29:32.279Z,23.03
2023-02-08T11:34:28.325Z,27.43
2023-02-08T11:39:26.073Z,24.77
2023-02-08T11:44:24.760Z,23.40
2023-02-08T11:49:29.366Z,19.27
2023-02-08T11:54:41.647Z,17.67
2023-02-08T11:59:40.844Z,18.30
2023-02-08T12:04:37.182Z,15.87
2023-02-08T12:09:56.094Z,14.13
2023-02-08T12:15:02.142Z,11.60
2023-02-08T12:20:26.140Z,11.97
2023-02-08T12:25:30.162Z,17.63
2023-02-08T12:30:31.102Z,13.23
2023-02-08T12:36:04.205Z,11.00
2023-02-08T12:41:12.805Z,12.87
2023-02-08T12:46:27.967Z,11.63
2023-02-08T12:51:32.596Z,12.70
2023-02-08T12:56:29.947Z,10.97
2023-02-08T13:01:27.807Z,12.67
2023-02-08T13:06:28.644Z,10.47
2023-02-08T13:11:29.491Z,12.27
2023-02-08T13:16:26.677Z,8.97
2023-02-08T13:21:25.433Z,10.90
2023-02-08T13:26:26.691Z,11.47
2023-02-08T13:31:24.469Z,11.07
2023-02-08T13:36:25.689Z,10.43
2023-02-08T13:41:23.959Z,10.60
2023-02-08T13:46:19.649Z,8.77
2023-02-08T13:52:02.465Z,10.63
2023-02-08T13:56:58.013Z,16.73
2023-02-08T14:02:24.844Z,16.70
2023-02-08T14:07:28.993Z,10.37
2023-02-08T14:12:29.526Z,12.10
2023-02-08T14:17:27.377Z,14.37
2023-02-08T14:22:21.651Z,12.50
2023-02-08T14:27:22.815Z,12.33
2023-02-08T14:32:27.117Z,12.97
2023-02-08T14:37:31.138Z,14.27
2023-02-08T14:43:00.538Z,15.10
2023-02-08T14:48:15.644Z,11.33
2023-02-08T14:53:25.135Z,26.33
2023-02-08T14:58:32.418Z,25.40
2023-02-08T15:03:31.971Z,23.60
2023-02-08T15:08:26.608Z,12.70
2023-02-08T15:13:24.536Z,30.53
2023-02-08T15:18:22.373Z,30.20
2023-02-08T15:23:26.027Z,18.83
2023-02-08T15:28:21.448Z,16.53
2023-02-08T15:33:18.069Z,13.10
2023-02-08T15:38:18.066Z,30.40
2023-02-08T15:43:15.161Z,20.43
2023-02-08T15:48:09.616Z,24.03
2023-02-08T15:53:05.432Z,28.43
2023-02-08T15:58:02.705Z,34.37
2023-02-08T16:03:02.165Z,20.80
2023-02-08T16:07:57.012Z,24.43
2023-02-08T16:12:54.385Z,27.67
2023-02-08T16:17:48.971Z,26.00
2023-02-08T16:22:44.556Z,22.40
2023-02-08T16:27:38.133Z,22.80
2023-02-08T16:32:34.889Z,28.70
2023-02-08T16:37:31.400Z,32.67
2023-02-08T16:42:30.862Z,29.33
2023-02-08T16:47:29.153Z,48.17
2023-02-08T16:52:22.841Z,44.70
